Time;durP1;ratioP1;P1;durP2;ratioP2;P2;SDS_P1;SDS_P2;PMS_P1;PMS_P2;Temp;Humidity;BMP_temperature;BMP_pressure;BME280_temperature;BME280_humidity;BME280_pressure;Samples;Min_cycle;Max_cycle;Signal;HPM_P1;HPM_P2
2022/11/19 00:01:05;;;;;;;14.02;6.38;;;;;;;;;;4911001;28;20453;-61
2022/11/19 00:03:33;;;;;;;15.95;6.50;;;;;;;;;;4911252;28;20378;-61
2022/11/19 00:06:11;;;;;;;15.83;6.50;;;;;;;;;;4911095;28;20097;-62
2022/11/19 00:08:38;;;;;;;16.00;7.07;;;;;;;;;;4911053;28;20669;-61
2022/11/19 00:11:09;;;;;;;13.63;7.13;;;;;;;;;;4912908;28;20306;-62
2022/11/19 00:13:36;;;;;;;17.30;6.72;;;;;;;;;;4910447;28;20473;-62
2022/11/19 00:16:11;;;;;;;13.18;6.03;;;;;;;;;;4912428;28;20553;-61
2022/11/19 00:18:36;;;;;;;15.50;6.15;;;;;;;;;;4910653;28;20473;-61
2022/11/19 00:21:21;;;;;;;15.52;6.10;;;;;;;;;;4911040;28;20446;-62
2022/11/19 00:23:46;;;;;;;14.38;6.20;;;;;;;;;;4910598;28;20448;-62
2022/11/19 00:26:14;;;;;;;13.20;5.78;;;;;;;;;;4910723;28;20402;-62
2022/11/19 00:28:40;;;;;;;14.43;6.13;;;;;;;;;;4910865;28;20433;-62
2022/11/19 00:31:09;;;;;;;14.15;5.75;;;;;;;;;;4910482;28;20442;-62
2022/11/19 00:33:36;;;;;;;11.63;5.30;;;;;;;;;;4911666;28;20350;-61
2022/11/19 00:36:04;;;;;;;15.73;5.55;;;;;;;;;;4909897;28;20326;-62
2022/11/19 00:38:31;;;;;;;10.48;5.38;;;;;;;;;;4910527;28;20023;-61
2022/11/19 00:40:56;;;;;;;12.25;5.35;;;;;;;;;;4910725;28;20373;-63
2022/11/19 00:46:06;;;;;;;12.73;5.68;;;;;;;;;;4911186;28;20350;-62
2022/11/19 00:48:32;;;;;;;13.55;5.25;;;;;;;;;;4910559;28;20051;-62
2022/11/19 00:50:58;;;;;;;13.80;5.25;;;;;;;;;;4910485;28;20468;-62
2022/11/19 00:53:23;;;;;;;13.80;5.47;;;;;;;;;;4910416;28;20385;-62
2022/11/19 00:55:49;;;;;;;13.02;6.20;;;;;;;;;;4910305;28;20027;-62
2022/11/19 00:58:14;;;;;;;13.55;5.72;;;;;;;;;;4910707;28;20339;-62
2022/11/19 01:00:39;;;;;;;15.77;6.78;;;;;;;;;;4909164;28;20585;-63
2022/11/19 01:03:05;;;;;;;15.70;6.28;;;;;;;;;;4891803;28;20394;-62
2022/11/19 01:05:31;;;;;;;12.10;6.20;;;;;;;;;;4891044;28;20321;-62
2022/11/19 01:07:57;;;;;;;11.55;5.90;;;;;;;;;;4892276;28;20058;-63
2022/11/19 01:10:23;;;;;;;11.13;6.03;;;;;;;;;;4891449;28;20435;-62
2022/11/19 01:15:32;;;;;;;12.02;5.10;;;;;;;;;;4891996;29;20339;-61
2022/11/19 01:17:58;;;;;;;14.40;6.50;;;;;;;;;;4891541;28;20066;-62
2022/11/19 01:20:23;;;;;;;16.23;6.00;;;;;;;;;;4891268;28;20023;-62
2022/11/19 01:22:49;;;;;;;11.07;5.80;;;;;;;;;;4890934;28;20513;-62
2022/11/19 01:25:14;;;;;;;13.68;6.35;;;;;;;;;;4891224;29;20453;-62
2022/11/19 01:27:40;;;;;;;14.10;6.25;;;;;;;;;;4890986;29;20450;-62
2022/11/19 01:30:07;;;;;;;12.82;6.03;;;;;;;;;;4891162;29;20485;-62
2022/11/19 01:32:32;;;;;;;11.07;5.90;;;;;;;;;;4890650;29;20370;-61
2022/11/19 01:34:57;;;;;;;13.15;5.75;;;;;;;;;;4892193;28;20031;-61
2022/11/19 01:37:23;;;;;;;14.52;6.55;;;;;;;;;;4891181;28;20331;-62
2022/11/19 01:39:49;;;;;;;13.20;5.78;;;;;;;;;;4891218;28;20466;-62
2022/11/19 01:42:50;;;;;;;18.50;6.03;;;;;;;;;;4891466;28;20426;-62
2022/11/19 01:45:36;;;;;;;12.32;6.63;;;;;;;;;;4890934;28;20434;-62
2022/11/19 01:48:21;;;;;;;16.50;7.05;;;;;;;;;;4892173;29;20435;-62
2022/11/19 01:50:52;;;;;;;12.45;5.97;;;;;;;;;;4892580;29;20458;-61
2022/11/19 01:53:22;;;;;;;11.68;5.53;;;;;;;;;;4924472;28;20406;-62
2022/11/19 01:55:49;;;;;;;12.88;6.32;;;;;;;;;;4894450;28;20126;-62
2022/11/19 01:58:19;;;;;;;12.52;5.93;;;;;;;;;;4924487;28;20518;-62
2022/11/19 02:00:45;;;;;;;13.20;6.05;;;;;;;;;;4895803;28;20403;-61
2022/11/19 02:03:12;;;;;;;13.00;6.10;;;;;;;;;;4924314;28;20430;-62
2022/11/19 02:05:40;;;;;;;14.50;6.10;;;;;;;;;;4892390;29;20513;-62
2022/11/19 02:08:34;;;;;;;13.18;6.38;;;;;;;;;;4895326;28;20342;-62
2022/11/19 02:11:53;;;;;;;10.48;5.22;;;;;;;;;;4894680;28;20481;-62
2022/11/19 02:14:53;;;;;;;12.02;5.80;;;;;;;;;;4887840;28;20564;-62
2022/11/19 02:17:50;;;;;;;11.25;5.38;;;;;;;;;;4894897;28;20126;-62
2022/11/19 02:20:50;;;;;;;11.00;5.20;;;;;;;;;;4892775;29;20453;-62
2022/11/19 02:23:48;;;;;;;12.05;5.55;;;;;;;;;;4893928;28;20433;-62
2022/11/19 02:27:13;;;;;;;11.88;5.40;;;;;;;;;;4892787;29;20058;-62
2022/11/19 02:30:06;;;;;;;15.27;5.40;;;;;;;;;;4895130;28;20446;-62
2022/11/19 02:32:41;;;;;;;8.50;5.00;;;;;;;;;;4922051;28;20542;-62
2022/11/19 02:35:28;;;;;;;11.80;5.47;;;;;;;;;;4891878;29;20327;-62
2022/11/19 02:38:01;;;;;;;13.00;6.10;;;;;;;;;;4893499;28;20454;-62
2022/11/19 02:40:47;;;;;;;11.05;5.78;;;;;;;;;;4893327;28;20031;-62
2022/11/19 02:43:31;;;;;;;8.85;4.82;;;;;;;;;;4922711;28;20169;-62
2022/11/19 02:46:24;;;;;;;10.05;4.88;;;;;;;;;;4922511;28;20399;-62
2022/11/19 02:48:51;;;;;;;9.63;4.97;;;;;;;;;;4921542;28;20504;-62
2022/11/19 02:51:18;;;;;;;10.80;4.75;;;;;;;;;;4923500;28;20447;-62
2022/11/19 02:53:47;;;;;;;9.90;4.88;;;;;;;;;;4923396;28;20031;-62
2022/11/19 02:56:51;;;;;;;8.52;5.07;;;;;;;;;;4923840;28;20071;-61
2022/11/19 03:05:32;;;;;;;8.45;4.90;;;;;;;;;;4919129;28;20529;-62
2022/11/19 03:07:58;;;;;;;8.68;5.05;;;;;;;;;;4922888;28;20035;-61
2022/11/19 03:10:31;;;;;;;8.05;4.75;;;;;;;;;;4892790;28;20448;-62
2022/11/19 03:19:22;;;;;;;9.38;5.35;;;;;;;;;;4893898;29;20537;-62
2022/11/19 03:22:17;;;;;;;12.85;6.15;;;;;;;;;;4918540;28;20466;-62
2022/11/19 03:25:00;;;;;;;10.88;6.03;;;;;;;;;;4892612;28;20434;-62
2022/11/19 03:27:39;;;;;;;12.18;5.35;;;;;;;;;;4919414;28;20519;-62
2022/11/19 03:30:06;;;;;;;9.57;4.60;;;;;;;;;;4891441;29;20422;-62
2022/11/19 03:32:56;;;;;;;8.90;5.30;;;;;;;;;;4890963;28;20378;-62
2022/11/19 03:35:31;;;;;;;11.90;5.32;;;;;;;;;;4893461;28;20539;-62
2022/11/19 03:38:03;;;;;;;10.25;4.78;;;;;;;;;;4891285;29;20478;-62
2022/11/19 03:40:30;;;;;;;10.13;5.45;;;;;;;;;;4892587;28;20472;-62
2022/11/19 03:42:58;;;;;;;11.98;4.70;;;;;;;;;;4922280;28;20349;-62
2022/11/19 03:45:28;;;;;;;9.38;4.63;;;;;;;;;;4922857;28;20457;-62
2022/11/19 03:47:55;;;;;;;10.00;4.90;;;;;;;;;;4921949;28;20443;-61
2022/11/19 03:50:33;;;;;;;9.00;4.57;;;;;;;;;;4892318;28;20446;-61
2022/11/19 03:52:59;;;;;;;9.57;4.55;;;;;;;;;;4890878;29;20709;-62
2022/11/19 03:55:33;;;;;;;9.48;5.07;;;;;;;;;;4893907;28;20326;-62
2022/11/19 03:58:08;;;;;;;9.15;4.32;;;;;;;;;;4891929;28;20442;-61
2022/11/19 04:00:33;;;;;;;10.23;5.32;;;;;;;;;;4891906;28;20438;-61
2022/11/19 04:02:59;;;;;;;6.03;3.92;;;;;;;;;;4892346;28;20418;-62
2022/11/19 04:05:24;;;;;;;7.65;4.35;;;;;;;;;;4891952;28;20443;-62
2022/11/19 04:07:50;;;;;;;7.22;3.92;;;;;;;;;;4891719;28;20453;-61
2022/11/19 04:10:15;;;;;;;9.55;4.45;;;;;;;;;;4891292;28;20458;-62
2022/11/19 04:12:41;;;;;;;8.95;4.65;;;;;;;;;;4891647;28;20485;-62
2022/11/19 04:15:10;;;;;;;8.25;3.60;;;;;;;;;;4892193;28;20418;-61
2022/11/19 04:17:36;;;;;;;6.93;4.07;;;;;;;;;;4892137;28;20473;-62
2022/11/19 04:20:01;;;;;;;9.02;4.15;;;;;;;;;;4892673;28;20193;-62
2022/11/19 04:22:27;;;;;;;7.55;3.90;;;;;;;;;;4893347;28;20513;-62
2022/11/19 04:24:52;;;;;;;5.32;3.88;;;;;;;;;;4891823;28;20453;-61
2022/11/19 04:27:18;;;;;;;6.90;4.22;;;;;;;;;;4892037;28;20330;-62
2022/11/19 04:29:43;;;;;;;8.30;3.95;;;;;;;;;;4891523;28;20398;-62
2022/11/19 04:32:09;;;;;;;6.38;4.28;;;;;;;;;;4893529;28;20027;-61
2022/11/19 04:34:34;;;;;;;12.27;4.40;;;;;;;;;;4891384;28;20343;-61
2022/11/19 04:37:00;;;;;;;11.07;4.07;;;;;;;;;;4892071;28;20485;-61
2022/11/19 04:39:25;;;;;;;10.00;4.70;;;;;;;;;;4891488;28;20359;-61
2022/11/19 04:41:51;;;;;;;6.60;3.60;;;;;;;;;;4891499;28;20399;-62
2022/11/19 04:44:16;;;;;;;9.02;4.10;;;;;;;;;;4892122;28;20457;-61
2022/11/19 04:46:42;;;;;;;7.15;3.70;;;;;;;;;;4892135;28;20035;-62
2022/11/19 04:49:07;;;;;;;7.65;3.95;;;;;;;;;;4891675;28;20458;-61
2022/11/19 04:51:33;;;;;;;5.95;3.85;;;;;;;;;;4891498;28;20054;-61
2022/11/19 04:53:58;;;;;;;6.88;3.95;;;;;;;;;;4891975;28;20349;-62
2022/11/19 04:56:24;;;;;;;6.45;3.63;;;;;;;;;;4891988;28;20491;-61
2022/11/19 04:58:49;;;;;;;8.52;4.57;;;;;;;;;;4891360;28;20347;-62
2022/11/19 05:01:15;;;;;;;7.38;3.92;;;;;;;;;;4891376;28;20427;-61
2022/11/19 05:03:40;;;;;;;6.53;3.72;;;;;;;;;;4891703;28;20098;-61
2022/11/19 05:06:06;;;;;;;8.57;4.38;;;;;;;;;;4891830;28;20422;-62
2022/11/19 05:08:32;;;;;;;9.00;3.58;;;;;;;;;;4892784;28;20836;-62
2022/11/19 05:10:57;;;;;;;6.47;3.50;;;;;;;;;;4891350;28;20102;-61
2022/11/19 05:13:23;;;;;;;6.80;3.90;;;;;;;;;;4890885;28;20478;-62
2022/11/19 05:15:48;;;;;;;7.25;4.07;;;;;;;;;;4891197;28;20050;-61
2022/11/19 05:18:14;;;;;;;7.35;3.88;;;;;;;;;;4890998;28;20460;-62
2022/11/19 05:20:39;;;;;;;7.07;3.60;;;;;;;;;;4892090;28;20472;-62
2022/11/19 05:23:05;;;;;;;6.43;3.88;;;;;;;;;;4895128;28;20323;-62
2022/11/19 05:25:31;;;;;;;5.93;3.28;;;;;;;;;;4894751;28;20429;-62
2022/11/19 05:27:56;;;;;;;5.90;3.42;;;;;;;;;;4894814;28;20027;-62
2022/11/19 05:30:22;;;;;;;6.93;4.65;;;;;;;;;;4896200;28;20446;-61
2022/11/19 05:32:47;;;;;;;7.30;3.50;;;;;;;;;;4894459;28;20354;-61
2022/11/19 05:35:13;;;;;;;6.60;3.72;;;;;;;;;;4894729;28;20054;-62
2022/11/19 05:37:38;;;;;;;4.47;3.30;;;;;;;;;;4894594;28;20422;-62
2022/11/19 05:40:05;;;;;;;4.55;3.28;;;;;;;;;;4894407;28;20448;-61
2022/11/19 05:42:30;;;;;;;6.85;3.53;;;;;;;;;;4894316;28;20370;-62
2022/11/19 05:44:56;;;;;;;6.53;3.50;;;;;;;;;;4894467;28;20366;-62
2022/11/19 05:47:21;;;;;;;5.32;3.10;;;;;;;;;;4894788;28;20346;-61
2022/11/19 05:49:47;;;;;;;5.53;3.40;;;;;;;;;;4894501;28;20434;-62
2022/11/19 05:52:12;;;;;;;6.40;3.75;;;;;;;;;;4894315;28;20330;-61
2022/11/19 05:54:38;;;;;;;5.13;3.22;;;;;;;;;;4894719;28;20327;-62
2022/11/19 05:57:04;;;;;;;8.27;4.10;;;;;;;;;;4895029;28;20327;-61
2022/11/19 05:59:31;;;;;;;5.57;3.03;;;;;;;;;;4894155;28;20513;-62
2022/11/19 06:01:56;;;;;;;6.32;3.55;;;;;;;;;;4894783;28;20386;-61
2022/11/19 06:04:22;;;;;;;5.78;3.33;;;;;;;;;;4894008;28;20415;-61
2022/11/19 06:06:47;;;;;;;6.47;3.55;;;;;;;;;;4894517;28;20477;-64
2022/11/19 06:09:12;;;;;;;8.98;3.75;;;;;;;;;;4893929;28;20039;-62
2022/11/19 06:11:47;;;;;;;6.90;4.10;;;;;;;;;;4893174;28;20379;-61
2022/11/19 06:14:14;;;;;;;5.65;3.47;;;;;;;;;;4893794;28;20165;-62
2022/11/19 06:16:39;;;;;;;7.75;3.50;;;;;;;;;;4893897;28;20347;-62
2022/11/19 06:19:05;;;;;;;4.70;3.10;;;;;;;;;;4893666;28;20350;-61
2022/11/19 06:21:31;;;;;;;5.40;3.58;;;;;;;;;;4893857;28;20114;-61
2022/11/19 06:23:56;;;;;;;6.53;3.53;;;;;;;;;;4894834;28;20028;-61
2022/11/19 06:26:27;;;;;;;5.30;3.40;;;;;;;;;;4895019;28;20111;-62
2022/11/19 06:28:53;;;;;;;6.50;3.47;;;;;;;;;;4893698;28;20504;-61
2022/11/19 06:31:19;;;;;;;4.68;2.95;;;;;;;;;;4894249;28;20386;-61
2022/11/19 06:33:45;;;;;;;4.85;2.92;;;;;;;;;;4923616;28;20390;-61
2022/11/19 06:36:11;;;;;;;6.45;3.50;;;;;;;;;;4894079;28;20347;-61
2022/11/19 06:38:36;;;;;;;4.85;3.40;;;;;;;;;;4893898;28;20322;-61
2022/11/19 06:41:02;;;;;;;7.20;3.33;;;;;;;;;;4893307;28;20397;-62
2022/11/19 06:43:27;;;;;;;6.68;3.38;;;;;;;;;;4893985;28;20081;-61
2022/11/19 06:45:53;;;;;;;8.88;3.80;;;;;;;;;;4894011;28;20330;-61
2022/11/19 06:48:19;;;;;;;6.43;3.35;;;;;;;;;;4893418;28;20094;-62
2022/11/19 06:50:45;;;;;;;4.93;3.40;;;;;;;;;;4893642;28;20425;-61
2022/11/19 06:53:11;;;;;;;5.55;3.45;;;;;;;;;;4893129;28;20438;-61
2022/11/19 06:55:36;;;;;;;5.35;3.47;;;;;;;;;;4893491;28;20469;-62
2022/11/19 06:58:03;;;;;;;4.40;3.03;;;;;;;;;;4893042;28;20472;-62
2022/11/19 07:00:29;;;;;;;5.95;3.10;;;;;;;;;;4893438;28;20373;-61
2022/11/19 07:02:55;;;;;;;6.57;3.90;;;;;;;;;;4893069;28;20332;-62
2022/11/19 07:05:20;;;;;;;5.35;3.60;;;;;;;;;;4893124;28;20340;-61
2022/11/19 07:07:46;;;;;;;6.68;3.63;;;;;;;;;;4893402;28;20423;-61
2022/11/19 07:10:11;;;;;;;5.72;3.40;;;;;;;;;;4892886;28;20139;-61
2022/11/19 07:12:37;;;;;;;5.43;3.45;;;;;;;;;;4892574;28;20536;-62
2022/11/19 07:15:03;;;;;;;5.80;3.53;;;;;;;;;;4892528;28;20362;-61
2022/11/19 07:17:28;;;;;;;5.45;3.53;;;;;;;;;;4893119;28;20039;-62
2022/11/19 07:19:54;;;;;;;7.47;3.47;;;;;;;;;;4892721;28;20031;-61
2022/11/19 07:22:19;;;;;;;6.00;3.47;;;;;;;;;;4893033;28;20340;-61
2022/11/19 07:24:45;;;;;;;6.85;3.42;;;;;;;;;;4893025;28;20102;-62
2022/11/19 07:27:10;;;;;;;4.13;3.03;;;;;;;;;;4892710;28;20465;-61
2022/11/19 07:29:37;;;;;;;7.25;3.10;;;;;;;;;;4893315;28;20465;-62
2022/11/19 07:32:04;;;;;;;6.70;3.08;;;;;;;;;;4845336;28;20429;-62
2022/11/19 07:34:29;;;;;;;4.38;2.80;;;;;;;;;;4862096;28;20431;-61
2022/11/19 07:36:55;;;;;;;5.90;3.70;;;;;;;;;;4912790;28;20388;-62
2022/11/19 07:39:21;;;;;;;6.93;3.53;;;;;;;;;;4911535;28;20035;-61
2022/11/19 07:44:30;;;;;;;8.18;3.13;;;;;;;;;;4911290;28;20488;-61
2022/11/19 07:46:56;;;;;;;4.63;3.03;;;;;;;;;;4911657;28;20505;-61
2022/11/19 07:49:21;;;;;;;4.82;3.15;;;;;;;;;;4911131;28;20460;-61
2022/11/19 07:51:47;;;;;;;6.03;3.60;;;;;;;;;;4911362;28;20426;-61
2022/11/19 07:54:13;;;;;;;7.00;3.40;;;;;;;;;;4911072;28;20459;-62
2022/11/19 07:56:39;;;;;;;4.95;2.97;;;;;;;;;;4911689;28;20429;-61
2022/11/19 07:59:05;;;;;;;4.93;3.10;;;;;;;;;;4910028;28;20453;-62
2022/11/19 08:01:30;;;;;;;6.95;3.40;;;;;;;;;;4911338;28;20445;-62
2022/11/19 08:03:56;;;;;;;5.90;3.40;;;;;;;;;;4911230;28;20498;-61
2022/11/19 08:06:24;;;;;;;6.40;3.60;;;;;;;;;;4911566;28;20057;-61
2022/11/19 08:08:50;;;;;;;5.78;3.20;;;;;;;;;;4911127;28;20453;-62
2022/11/19 08:11:16;;;;;;;6.15;2.83;;;;;;;;;;4911225;28;20516;-62
2022/11/19 08:13:42;;;;;;;5.28;2.78;;;;;;;;;;4911167;28;20339;-61
2022/11/19 08:16:11;;;;;;;5.85;3.17;;;;;;;;;;4911407;28;20483;-61
2022/11/19 08:18:38;;;;;;;8.05;3.22;;;;;;;;;;4911473;28;20326;-61
2022/11/19 08:21:09;;;;;;;6.57;3.45;;;;;;;;;;4910967;28;20030;-62
2022/11/19 08:23:36;;;;;;;6.55;3.08;;;;;;;;;;4912377;28;20330;-61
2022/11/19 08:26:02;;;;;;;5.55;3.15;;;;;;;;;;4911280;28;20464;-60
2022/11/19 08:28:28;;;;;;;5.80;3.65;;;;;;;;;;4912418;28;20381;-61
2022/11/19 08:30:55;;;;;;;4.88;3.13;;;;;;;;;;4910974;28;20442;-60
2022/11/19 08:33:20;;;;;;;6.43;3.20;;;;;;;;;;4910919;28;20026;-61
2022/11/19 08:35:47;;;;;;;5.45;3.22;;;;;;;;;;4911352;28;20508;-61
2022/11/19 08:38:12;;;;;;;5.60;3.25;;;;;;;;;;4911940;28;20027;-61
2022/11/19 08:40:38;;;;;;;6.20;3.30;;;;;;;;;;4910917;28;20470;-61
2022/11/19 08:43:03;;;;;;;4.35;3.05;;;;;;;;;;4910722;28;20480;-61
2022/11/19 08:45:34;;;;;;;4.97;3.00;;;;;;;;;;4910700;28;20704;-61
2022/11/19 08:48:03;;;;;;;5.70;3.35;;;;;;;;;;4910855;28;20430;-61
2022/11/19 08:50:29;;;;;;;;;;;;;;;;;;4911385;28;20548;-60
2022/11/19 08:53:03;;;;;;;4.05;2.90;;;;;;;;;;4911120;28;20315;-61
2022/11/19 08:55:30;;;;;;;7.38;3.80;;;;;;;;;;4911458;28;20426;-61
2022/11/19 08:58:06;;;;;;;5.20;3.30;;;;;;;;;;4914632;28;20563;-61
2022/11/19 09:00:35;;;;;;;5.68;3.30;;;;;;;;;;4915550;28;20470;-60
2022/11/19 09:03:00;;;;;;;6.07;3.33;;;;;;;;;;4914534;28;20441;-61
2022/11/19 09:05:26;;;;;;;5.25;3.00;;;;;;;;;;4914739;28;20050;-60
2022/11/19 09:07:54;;;;;;;3.30;2.70;;;;;;;;;;4914362;28;20031;-61
2022/11/19 09:10:19;;;;;;;3.90;2.58;;;;;;;;;;4914384;28;20437;-61
2022/11/19 09:12:45;;;;;;;4.30;2.65;;;;;;;;;;4914443;28;20446;-61
2022/11/19 09:15:10;;;;;;;6.55;3.22;;;;;;;;;;4914611;28;20395;-61
2022/11/19 09:17:37;;;;;;;4.68;2.85;;;;;;;;;;4915472;28;20516;-61
2022/11/19 09:20:03;;;;;;;6.03;2.95;;;;;;;;;;4826232;28;20083;-61
2022/11/19 09:22:30;;;;;;;5.82;3.45;;;;;;;;;;4895575;28;20031;-61
2022/11/19 09:24:56;;;;;;;7.38;3.25;;;;;;;;;;4896264;28;20458;-61
2022/11/19 09:27:21;;;;;;;5.35;3.42;;;;;;;;;;4895681;28;20429;-60
2022/11/19 09:29:47;;;;;;;5.35;3.22;;;;;;;;;;4897208;28;20423;-61
2022/11/19 09:32:12;;;;;;;4.50;2.92;;;;;;;;;;4895964;28;20063;-61
2022/11/19 09:34:40;;;;;;;6.13;3.63;;;;;;;;;;4894638;28;20452;-61
2022/11/19 09:37:07;;;;;;;5.95;3.47;;;;;;;;;;4846428;28;20500;-61
2022/11/19 09:39:33;;;;;;;3.88;2.85;;;;;;;;;;4893563;29;20599;-61
2022/11/19 09:42:27;;;;;;;4.55;2.78;;;;;;;;;;4894892;28;20502;-62
2022/11/19 09:45:20;;;;;;;5.22;3.10;;;;;;;;;;4895399;28;20446;-61
2022/11/19 09:48:16;;;;;;;5.72;3.35;;;;;;;;;;4894749;28;20522;-61
2022/11/19 09:50:58;;;;;;;6.93;3.10;;;;;;;;;;4894824;28;20419;-61
2022/11/19 09:53:29;;;;;;;4.15;2.60;;;;;;;;;;4894532;28;20093;-61
2022/11/19 09:55:55;;;;;;;4.47;2.30;;;;;;;;;;4908769;28;20502;-61
2022/11/19 09:58:26;;;;;;;5.88;2.97;;;;;;;;;;4893340;28;20506;-61
2022/11/19 10:00:51;;;;;;;4.28;2.65;;;;;;;;;;4894437;28;20695;-61
2022/11/19 10:03:21;;;;;;;5.93;3.17;;;;;;;;;;4894566;28;20304;-61
2022/11/19 10:05:56;;;;;;;5.75;2.85;;;;;;;;;;4894269;28;20574;-62
2022/11/19 10:08:48;;;;;;;4.20;2.88;;;;;;;;;;4876404;28;20393;-61
2022/11/19 10:11:35;;;;;;;6.28;3.33;;;;;;;;;;4918792;28;20035;-61
2022/11/19 10:14:17;;;;;;;4.10;2.58;;;;;;;;;;4914769;28;20434;-61
2022/11/19 10:17:39;;;;;;;7.35;2.95;;;;;;;;;;4912941;28;20426;-61
2022/11/19 10:20:46;;;;;;;4.65;2.60;;;;;;;;;;4919765;28;20400;-62
2022/11/19 10:23:24;;;;;;;4.22;2.33;;;;;;;;;;4913366;28;20425;-61
2022/11/19 10:25:59;;;;;;;6.38;3.67;;;;;;;;;;4913195;28;20405;-61
2022/11/19 10:28:29;;;;;;;5.93;3.45;;;;;;;;;;4913593;28;20509;-62
2022/11/19 10:31:07;;;;;;;6.72;3.17;;;;;;;;;;4911601;28;20434;-61
2022/11/19 10:33:42;;;;;;;4.68;2.95;;;;;;;;;;4912811;28;20596;-61
2022/11/19 10:36:20;;;;;;;4.35;2.72;;;;;;;;;;4912694;28;20450;-61
2022/11/19 10:39:09;;;;;;;5.75;2.88;;;;;;;;;;4914587;28;20341;-61
2022/11/19 10:41:41;;;;;;;3.92;3.00;;;;;;;;;;4914727;28;20035;-61
2022/11/19 10:44:36;;;;;;;5.20;2.70;;;;;;;;;;4911155;28;20104;-61
2022/11/19 10:46:59;;;;;;;5.07;3.03;;;;;;;;;;4911253;28;20043;-62
2022/11/19 10:49:25;;;;;;;4.40;2.78;;;;;;;;;;4910992;28;20516;-61
2022/11/19 10:51:50;;;;;;;4.30;3.00;;;;;;;;;;4912375;28;20034;-61
2022/11/19 10:54:26;;;;;;;5.60;3.13;;;;;;;;;;4911353;28;20493;-61
2022/11/19 10:56:54;;;;;;;4.47;2.80;;;;;;;;;;4911049;28;20451;-61
2022/11/19 10:59:27;;;;;;;4.50;2.85;;;;;;;;;;4911158;28;20070;-61
2022/11/19 11:02:02;;;;;;;5.28;3.13;;;;;;;;;;4910935;28;20038;-61
2022/11/19 11:04:28;;;;;;;340.17;23.65;;;;;;;;;;4909095;28;20426;-59
2022/11/19 11:06:59;;;;;;;18.13;6.40;;;;;;;;;;4911989;28;20105;-69
2022/11/19 11:09:36;;;;;;;14.90;7.72;;;;;;;;;;4912628;28;20390;-66
2022/11/19 11:15:50;;;;;;;8.43;4.72;;;;;;;;;;5044675;27;20840;-62
2022/11/19 11:18:17;;;;;;;7.80;4.75;;;;;;;;;;4931369;28;20494;-61
2022/11/19 11:20:49;;;;;;;9.95;5.78;;;;;;;;;;4937961;28;20444;-60
2022/11/19 11:23:22;;;;;;;19.10;17.17;;;;;;;;;;4983804;28;20398;-60
2022/11/19 11:26:10;;;;;;;9.18;6.25;;;;;;;;;;4932155;28;20120;-60
2022/11/19 11:28:52;;;;;;;8.90;5.47;;;;;;;;;;4985370;28;20479;-61
2022/11/19 11:31:41;;;;;;;10.15;5.32;;;;;;;;;;4984775;28;20738;-60
2022/11/19 11:34:26;;;;;;;9.48;5.55;;;;;;;;;;4984780;28;20472;-60
2022/11/19 11:36:52;;;;;;;9.60;5.32;;;;;;;;;;4980749;28;20422;-61
2022/11/19 11:39:43;;;;;;;11.60;6.97;;;;;;;;;;4984098;28;20053;-62
2022/11/19 11:42:11;;;;;;;16.38;9.38;;;;;;;;;;4984143;28;20340;-60
2022/11/19 11:44:47;;;;;;;17.73;8.07;;;;;;;;;;4986187;28;20439;-61
2022/11/19 11:47:21;;;;;;;14.10;7.60;;;;;;;;;;4986072;28;20443;-60
2022/11/19 11:49:58;;;;;;;13.07;7.68;;;;;;;;;;4985843;28;20447;-61
2022/11/19 11:52:45;;;;;;;15.07;8.40;;;;;;;;;;4984370;28;20352;-61
2022/11/19 11:55:22;;;;;;;13.32;8.05;;;;;;;;;;4985323;28;20479;-60
2022/11/19 11:57:58;;;;;;;11.45;6.97;;;;;;;;;;4984590;28;20624;-61
2022/11/19 12:00:44;;;;;;;36.50;16.23;;;;;;;;;;4985731;28;20033;-61
2022/11/19 12:03:13;;;;;;;26.23;13.63;;;;;;;;;;4985220;28;20025;-62
2022/11/19 12:06:02;;;;;;;23.27;11.35;;;;;;;;;;4985692;28;20418;-61
2022/11/19 12:08:54;;;;;;;27.10;12.63;;;;;;;;;;4984802;28;20356;-61
2022/11/19 12:14:29;;;;;;;19.80;9.85;;;;;;;;;;4985170;28;20068;-61
2022/11/19 12:17:09;;;;;;;10.82;6.55;;;;;;;;;;4985805;28;20300;-61
2022/11/19 12:19:56;;;;;;;10.10;6.63;;;;;;;;;;4983878;28;20327;-61
2022/11/19 12:22:46;;;;;;;14.48;7.05;;;;;;;;;;4985188;28;20418;-62
2022/11/19 12:25:53;;;;;;;17.35;7.32;;;;;;;;;;4981514;28;20448;-62
2022/11/19 12:28:49;;;;;;;13.38;7.80;;;;;;;;;;4954139;28;20041;-61
2022/11/19 12:31:22;;;;;;;21.85;8.40;;;;;;;;;;4971336;28;20539;-61
2022/11/19 12:34:34;;;;;;;23.17;10.40;;;;;;;;;;4971681;28;20475;-60
2022/11/19 12:37:18;;;;;;;11.50;7.35;;;;;;;;;;4972166;28;20510;-61
2022/11/19 12:39:59;;;;;;;12.02;7.15;;;;;;;;;;4970283;28;20352;-61
2022/11/19 12:42:51;;;;;;;16.85;8.45;;;;;;;;;;4971921;28;20298;-60
2022/11/19 12:45:40;;;;;;;13.73;8.18;;;;;;;;;;4970307;28;20087;-60
2022/11/19 12:48:25;;;;;;;14.77;6.95;;;;;;;;;;4970319;28;20436;-61
2022/11/19 12:51:05;;;;;;;14.23;6.63;;;;;;;;;;4960616;28;20482;-60
2022/11/19 12:54:11;;;;;;;12.77;6.57;;;;;;;;;;4991747;28;20348;-60
2022/11/19 12:57:07;;;;;;;17.85;8.00;;;;;;;;;;4989108;28;20402;-61
2022/11/19 12:59:48;;;;;;;15.52;9.57;;;;;;;;;;4991522;28;20462;-61
2022/11/19 13:02:24;;;;;;;12.90;7.70;;;;;;;;;;4989735;28;20387;-61
2022/11/19 13:04:59;;;;;;;19.17;9.63;;;;;;;;;;4988902;28;20455;-60
2022/11/19 13:07:34;;;;;;;21.50;13.45;;;;;;;;;;4974372;28;20045;-60
2022/11/19 13:10:23;;;;;;;24.85;14.13;;;;;;;;;;4960160;28;20527;-62
2022/11/19 13:12:53;;;;;;;42.17;20.35;;;;;;;;;;4877782;28;20119;-61
